sensor_id;sensor_type;location;lat;lon;timestamp;temperature;humidity
19088;DHT22;9676;50.916;13.352;2023-11-22T00:00:28;4.90;99.90
19088;DHT22;9676;50.916;13.352;2023-11-22T00:02:58;4.90;99.90
19088;DHT22;9676;50.916;13.352;2023-11-22T00:05:28;4.90;99.90
19088;DHT22;9676;50.916;13.352;2023-11-22T00:07:57;4.90;99.90
19088;DHT22;9676;50.916;13.352;2023-11-22T00:10:26;4.90;99.90
19088;DHT22;9676;50.916;13.352;2023-11-22T00:12:57;4.90;99.90
19088;DHT22;9676;50.916;13.352;2023-11-22T00:15:27;4.90;99.90
19088;DHT22;9676;50.916;13.352;2023-11-22T00:17:57;4.90;99.90
19088;DHT22;9676;50.916;13.352;2023-11-22T00:20:30;4.90;99.90
19088;DHT22;9676;50.916;13.352;2023-11-22T00:23:01;4.90;99.90
19088;DHT22;9676;50.916;13.352;2023-11-22T00:25:32;4.90;99.90
19088;DHT22;9676;50.916;13.352;2023-11-22T00:28:03;4.80;99.90
19088;DHT22;9676;50.916;13.352;2023-11-22T00:30:33;4.80;99.90
19088;DHT22;9676;50.916;13.352;2023-11-22T00:33:03;4.80;99.90
19088;DHT22;9676;50.916;13.352;2023-11-22T00:35:33;4.80;99.90
19088;DHT22;9676;50.916;13.352;2023-11-22T00:38:03;4.80;99.90
19088;DHT22;9676;50.916;13.352;2023-11-22T00:40:32;4.80;99.90
19088;DHT22;9676;50.916;13.352;2023-11-22T00:43:02;4.70;99.90
19088;DHT22;9676;50.916;13.352;2023-11-22T00:45:31;4.70;99.90
19088;DHT22;9676;50.916;13.352;2023-11-22T00:48:01;4.70;99.90
19088;DHT22;9676;50.916;13.352;2023-11-22T00:50:31;4.60;99.90
19088;DHT22;9676;50.916;13.352;2023-11-22T00:53:00;4.60;99.90
19088;DHT22;9676;50.916;13.352;2023-11-22T00:55:29;4.60;99.90
19088;DHT22;9676;50.916;13.352;2023-11-22T00:57:59;4.50;99.90
19088;DHT22;9676;50.916;13.352;2023-11-22T01:00:33;4.50;99.90
19088;DHT22;9676;50.916;13.352;2023-11-22T01:03:03;4.50;99.90
19088;DHT22;9676;50.916;13.352;2023-11-22T01:05:34;4.50;99.90
19088;DHT22;9676;50.916;13.352;2023-11-22T01:08:03;4.50;99.90
19088;DHT22;9676;50.916;13.352;2023-11-22T01:10:34;4.50;99.90
19088;DHT22;9676;50.916;13.352;2023-11-22T01:13:03;4.50;99.90
19088;DHT22;9676;50.916;13.352;2023-11-22T01:15:34;4.50;99.90
19088;DHT22;9676;50.916;13.352;2023-11-22T01:18:04;4.50;99.90
19088;DHT22;9676;50.916;13.352;2023-11-22T01:20:34;4.50;99.90
19088;DHT22;9676;50.916;13.352;2023-11-22T01:23:03;4.50;99.90
19088;DHT22;9676;50.916;13.352;2023-11-22T01:25:33;4.60;99.90
19088;DHT22;9676;50.916;13.352;2023-11-22T01:28:02;4.60;99.90
19088;DHT22;9676;50.916;13.352;2023-11-22T01:30:33;4.60;99.90
19088;DHT22;9676;50.916;13.352;2023-11-22T01:33:02;4.50;99.90
19088;DHT22;9676;50.916;13.352;2023-11-22T01:35:32;4.50;99.90
19088;DHT22;9676;50.916;13.352;2023-11-22T01:38:02;4.50;99.90
19088;DHT22;9676;50.916;13.352;2023-11-22T01:40:32;4.50;99.90
19088;DHT22;9676;50.916;13.352;2023-11-22T01:43:02;4.50;99.90
19088;DHT22;9676;50.916;13.352;2023-11-22T01:45:34;4.50;99.90
19088;DHT22;9676;50.916;13.352;2023-11-22T01:48:04;4.60;99.90
19088;DHT22;9676;50.916;13.352;2023-11-22T01:50:33;4.60;99.90
19088;DHT22;9676;50.916;13.352;2023-11-22T01:53:03;4.60;99.90
19088;DHT22;9676;50.916;13.352;2023-11-22T01:55:32;4.60;99.90
19088;DHT22;9676;50.916;13.352;2023-11-22T01:58:03;4.50;99.90
19088;DHT22;9676;50.916;13.352;2023-11-22T02:00:40;4.50;99.90
19088;DHT22;9676;50.916;13.352;2023-11-22T02:03:12;4.40;99.90
19088;DHT22;9676;50.916;13.352;2023-11-22T02:05:48;4.40;99.90
19088;DHT22;9676;50.916;13.352;2023-11-22T02:08:18;4.40;99.90
19088;DHT22;9676;50.916;13.352;2023-11-22T02:10:57;4.40;99.90
19088;DHT22;9676;50.916;13.352;2023-11-22T02:13:30;4.40;99.90
19088;DHT22;9676;50.916;13.352;2023-11-22T02:16:01;4.40;99.90
19088;DHT22;9676;50.916;13.352;2023-11-22T02:18:30;4.40;99.90
19088;DHT22;9676;50.916;13.352;2023-11-22T02:21:00;4.40;99.90
19088;DHT22;9676;50.916;13.352;2023-11-22T02:23:31;4.40;99.90
19088;DHT22;9676;50.916;13.352;2023-11-22T02:26:00;4.40;99.90
19088;DHT22;9676;50.916;13.352;2023-11-22T02:28:30;4.40;99.90
19088;DHT22;9676;50.916;13.352;2023-11-22T02:31:00;4.40;99.90
19088;DHT22;9676;50.916;13.352;2023-11-22T02:33:31;4.40;99.90
19088;DHT22;9676;50.916;13.352;2023-11-22T02:36:01;4.40;99.90
19088;DHT22;9676;50.916;13.352;2023-11-22T02:38:32;4.40;99.90
19088;DHT22;9676;50.916;13.352;2023-11-22T02:41:02;4.50;99.90
19088;DHT22;9676;50.916;13.352;2023-11-22T02:43:32;4.50;99.90
19088;DHT22;9676;50.916;13.352;2023-11-22T02:46:01;4.50;99.90
19088;DHT22;9676;50.916;13.352;2023-11-22T02:48:32;4.50;99.90
19088;DHT22;9676;50.916;13.352;2023-11-22T02:51:01;4.50;99.90
19088;DHT22;9676;50.916;13.352;2023-11-22T02:53:32;4.50;99.90
19088;DHT22;9676;50.916;13.352;2023-11-22T02:56:02;4.40;99.90
19088;DHT22;9676;50.916;13.352;2023-11-22T02:58:31;4.40;99.90
19088;DHT22;9676;50.916;13.352;2023-11-22T03:01:00;4.40;99.90
19088;DHT22;9676;50.916;13.352;2023-11-22T03:03:30;4.40;99.90
19088;DHT22;9676;50.916;13.352;2023-11-22T03:05:59;4.40;99.90
19088;DHT22;9676;50.916;13.352;2023-11-22T03:08:29;4.40;99.90
19088;DHT22;9676;50.916;13.352;2023-11-22T03:10:59;4.30;99.90
19088;DHT22;9676;50.916;13.352;2023-11-22T03:13:30;4.30;99.90
19088;DHT22;9676;50.916;13.352;2023-11-22T03:15:59;4.30;99.90
19088;DHT22;9676;50.916;13.352;2023-11-22T03:18:31;4.30;99.90
19088;DHT22;9676;50.916;13.352;2023-11-22T03:21:00;4.30;99.90
19088;DHT22;9676;50.916;13.352;2023-11-22T03:23:30;4.30;99.90
19088;DHT22;9676;50.916;13.352;2023-11-22T03:26:00;4.30;99.90
19088;DHT22;9676;50.916;13.352;2023-11-22T03:28:31;4.30;99.90
19088;DHT22;9676;50.916;13.352;2023-11-22T03:31:04;4.30;99.90
19088;DHT22;9676;50.916;13.352;2023-11-22T03:33:54;4.30;99.90
19088;DHT22;9676;50.916;13.352;2023-11-22T03:36:27;4.20;99.90
19088;DHT22;9676;50.916;13.352;2023-11-22T03:39:06;4.20;99.90
19088;DHT22;9676;50.916;13.352;2023-11-22T03:41:37;4.20;99.90
19088;DHT22;9676;50.916;13.352;2023-11-22T03:44:06;4.20;99.90
19088;DHT22;9676;50.916;13.352;2023-11-22T03:46:36;4.20;99.90
19088;DHT22;9676;50.916;13.352;2023-11-22T03:49:08;4.30;99.90
19088;DHT22;9676;50.916;13.352;2023-11-22T03:51:40;4.30;99.90
19088;DHT22;9676;50.916;13.352;2023-11-22T03:54:29;4.40;99.90
19088;DHT22;9676;50.916;13.352;2023-11-22T03:57:05;4.40;99.90
19088;DHT22;9676;50.916;13.352;2023-11-22T03:59:53;4.40;99.90
19088;DHT22;9676;50.916;13.352;2023-11-22T04:02:42;4.40;99.90
19088;DHT22;9676;50.916;13.352;2023-11-22T04:05:30;4.40;99.90
19088;DHT22;9676;50.916;13.352;2023-11-22T04:08:18;4.40;99.90
19088;DHT22;9676;50.916;13.352;2023-11-22T04:10:48;4.40;99.90
19088;DHT22;9676;50.916;13.352;2023-11-22T04:13:21;4.40;99.90
19088;DHT22;9676;50.916;13.352;2023-11-22T04:15:52;4.30;99.90
19088;DHT22;9676;50.916;13.352;2023-11-22T04:18:23;4.30;99.90
19088;DHT22;9676;50.916;13.352;2023-11-22T04:20:54;4.20;99.90
19088;DHT22;9676;50.916;13.352;2023-11-22T04:23:25;4.20;99.90
19088;DHT22;9676;50.916;13.352;2023-11-22T04:26:14;4.20;99.90
19088;DHT22;9676;50.916;13.352;2023-11-22T04:28:45;4.20;99.90
19088;DHT22;9676;50.916;13.352;2023-11-22T04:31:33;4.30;99.90
19088;DHT22;9676;50.916;13.352;2023-11-22T04:34:21;4.30;99.90
19088;DHT22;9676;50.916;13.352;2023-11-22T04:37:05;4.20;99.90
19088;DHT22;9676;50.916;13.352;2023-11-22T04:39:53;4.20;99.90
19088;DHT22;9676;50.916;13.352;2023-11-22T04:42:42;4.20;99.90
19088;DHT22;9676;50.916;13.352;2023-11-22T04:45:32;4.20;99.90
19088;DHT22;9676;50.916;13.352;2023-11-22T04:48:20;4.20;99.90
19088;DHT22;9676;50.916;13.352;2023-11-22T04:50:50;4.20;99.90
19088;DHT22;9676;50.916;13.352;2023-11-22T04:53:19;4.20;99.90
19088;DHT22;9676;50.916;13.352;2023-11-22T04:56:07;4.20;99.90
19088;DHT22;9676;50.916;13.352;2023-11-22T04:58:39;4.20;99.90
19088;DHT22;9676;50.916;13.352;2023-11-22T05:01:32;4.20;99.90
19088;DHT22;9676;50.916;13.352;2023-11-22T05:04:14;4.20;99.90
19088;DHT22;9676;50.916;13.352;2023-11-22T05:07:02;4.20;99.90
19088;DHT22;9676;50.916;13.352;2023-11-22T05:09:51;4.20;99.90
19088;DHT22;9676;50.916;13.352;2023-11-22T05:12:40;4.20;99.90
19088;DHT22;9676;50.916;13.352;2023-11-22T05:15:28;4.20;99.90
19088;DHT22;9676;50.916;13.352;2023-11-22T05:18:17;4.20;99.90
19088;DHT22;9676;50.916;13.352;2023-11-22T05:21:05;4.20;99.90
19088;DHT22;9676;50.916;13.352;2023-11-22T05:23:35;4.20;99.90
19088;DHT22;9676;50.916;13.352;2023-11-22T05:26:05;4.20;99.90
19088;DHT22;9676;50.916;13.352;2023-11-22T05:28:34;4.20;99.90
19088;DHT22;9676;50.916;13.352;2023-11-22T05:31:04;4.20;99.90
19088;DHT22;9676;50.916;13.352;2023-11-22T05:33:54;4.20;99.90
19088;DHT22;9676;50.916;13.352;2023-11-22T05:36:42;4.20;99.90
19088;DHT22;9676;50.916;13.352;2023-11-22T05:39:30;4.20;99.90
19088;DHT22;9676;50.916;13.352;2023-11-22T05:42:18;4.10;99.90
19088;DHT22;9676;50.916;13.352;2023-11-22T05:45:08;4.10;99.90
19088;DHT22;9676;50.916;13.352;2023-11-22T05:47:58;4.10;99.90
19088;DHT22;9676;50.916;13.352;2023-11-22T05:50:49;4.10;99.90
19088;DHT22;9676;50.916;13.352;2023-11-22T05:53:40;4.10;99.90
19088;DHT22;9676;50.916;13.352;2023-11-22T05:56:30;4.10;99.90
19088;DHT22;9676;50.916;13.352;2023-11-22T05:59:19;4.10;99.90
19088;DHT22;9676;50.916;13.352;2023-11-22T06:02:09;4.20;99.90
19088;DHT22;9676;50.916;13.352;2023-11-22T06:04:58;4.20;99.90
19088;DHT22;9676;50.916;13.352;2023-11-22T06:07:50;4.20;99.90
19088;DHT22;9676;50.916;13.352;2023-11-22T06:10:39;4.20;99.90
19088;DHT22;9676;50.916;13.352;2023-11-22T06:13:30;4.10;99.90
19088;DHT22;9676;50.916;13.352;2023-11-22T06:16:19;4.10;99.90
19088;DHT22;9676;50.916;13.352;2023-11-22T06:19:09;4.10;99.90
19088;DHT22;9676;50.916;13.352;2023-11-22T06:21:59;4.10;99.90
19088;DHT22;9676;50.916;13.352;2023-11-22T06:24:50;4.10;99.90
19088;DHT22;9676;50.916;13.352;2023-11-22T06:27:40;4.10;99.90
19088;DHT22;9676;50.916;13.352;2023-11-22T06:30:30;4.10;99.90
19088;DHT22;9676;50.916;13.352;2023-11-22T06:33:20;4.10;99.90
19088;DHT22;9676;50.916;13.352;2023-11-22T06:36:09;4.10;99.90
19088;DHT22;9676;50.916;13.352;2023-11-22T06:39:01;4.20;99.90
19088;DHT22;9676;50.916;13.352;2023-11-22T06:41:53;4.20;99.90
19088;DHT22;9676;50.916;13.352;2023-11-22T06:44:43;4.20;99.90
19088;DHT22;9676;50.916;13.352;2023-11-22T06:47:35;4.20;99.90
19088;DHT22;9676;50.916;13.352;2023-11-22T06:50:26;4.30;99.90
19088;DHT22;9676;50.916;13.352;2023-11-22T06:53:15;4.20;99.90
19088;DHT22;9676;50.916;13.352;2023-11-22T06:56:07;4.30;99.90
19088;DHT22;9676;50.916;13.352;2023-11-22T06:58:59;4.20;99.90
19088;DHT22;9676;50.916;13.352;2023-11-22T07:01:49;4.20;99.90
19088;DHT22;9676;50.916;13.352;2023-11-22T07:04:38;4.20;99.90
19088;DHT22;9676;50.916;13.352;2023-11-22T07:07:28;4.20;99.90
19088;DHT22;9676;50.916;13.352;2023-11-22T07:10:18;4.10;99.90
19088;DHT22;9676;50.916;13.352;2023-11-22T07:13:08;4.20;99.90
19088;DHT22;9676;50.916;13.352;2023-11-22T07:15:59;4.20;99.90
19088;DHT22;9676;50.916;13.352;2023-11-22T07:18:49;4.20;99.90
19088;DHT22;9676;50.916;13.352;2023-11-22T07:21:39;4.20;99.90
19088;DHT22;9676;50.916;13.352;2023-11-22T07:24:29;4.20;99.90
19088;DHT22;9676;50.916;13.352;2023-11-22T07:27:22;4.20;99.90
19088;DHT22;9676;50.916;13.352;2023-11-22T07:30:14;4.20;99.90
19088;DHT22;9676;50.916;13.352;2023-11-22T07:33:05;4.20;99.90
19088;DHT22;9676;50.916;13.352;2023-11-22T07:35:55;4.20;99.90
19088;DHT22;9676;50.916;13.352;2023-11-22T07:38:46;4.20;99.90
19088;DHT22;9676;50.916;13.352;2023-11-22T07:41:37;4.20;99.90
19088;DHT22;9676;50.916;13.352;2023-11-22T07:44:27;4.20;99.90
19088;DHT22;9676;50.916;13.352;2023-11-22T07:47:21;4.20;99.90
19088;DHT22;9676;50.916;13.352;2023-11-22T07:50:12;4.20;99.90
19088;DHT22;9676;50.916;13.352;2023-11-22T07:53:02;4.20;99.90
19088;DHT22;9676;50.916;13.352;2023-11-22T07:55:53;4.20;99.90
19088;DHT22;9676;50.916;13.352;2023-11-22T07:58:42;4.20;99.90
19088;DHT22;9676;50.916;13.352;2023-11-22T08:01:32;4.20;99.90
19088;DHT22;9676;50.916;13.352;2023-11-22T08:04:22;4.20;99.90
19088;DHT22;9676;50.916;13.352;2023-11-22T08:07:14;4.30;99.90
19088;DHT22;9676;50.916;13.352;2023-11-22T08:10:06;4.30;99.90
19088;DHT22;9676;50.916;13.352;2023-11-22T08:13:03;4.30;99.90
19088;DHT22;9676;50.916;13.352;2023-11-22T08:15:53;4.30;99.90
19088;DHT22;9676;50.916;13.352;2023-11-22T08:18:43;4.40;99.90
19088;DHT22;9676;50.916;13.352;2023-11-22T08:21:32;4.40;99.90
19088;DHT22;9676;50.916;13.352;2023-11-22T08:24:24;4.40;99.90
19088;DHT22;9676;50.916;13.352;2023-11-22T08:27:13;4.40;99.90
19088;DHT22;9676;50.916;13.352;2023-11-22T08:30:05;4.40;99.90
19088;DHT22;9676;50.916;13.352;2023-11-22T08:33:01;4.40;99.90
19088;DHT22;9676;50.916;13.352;2023-11-22T08:35:50;4.50;99.90
19088;DHT22;9676;50.916;13.352;2023-11-22T08:38:46;4.50;99.90
19088;DHT22;9676;50.916;13.352;2023-11-22T08:41:37;4.50;99.90
19088;DHT22;9676;50.916;13.352;2023-11-22T08:44:27;4.50;99.90
19088;DHT22;9676;50.916;13.352;2023-11-22T08:47:16;4.40;99.90
19088;DHT22;9676;50.916;13.352;2023-11-22T08:50:07;4.40;99.90
19088;DHT22;9676;50.916;13.352;2023-11-22T08:52:59;4.30;99.90
19088;DHT22;9676;50.916;13.352;2023-11-22T08:55:48;4.30;99.90
19088;DHT22;9676;50.916;13.352;2023-11-22T08:58:40;4.30;99.90
19088;DHT22;9676;50.916;13.352;2023-11-22T09:01:30;4.30;99.90
19088;DHT22;9676;50.916;13.352;2023-11-22T09:04:20;4.30;99.90
19088;DHT22;9676;50.916;13.352;2023-11-22T09:07:12;4.20;99.90
19088;DHT22;9676;50.916;13.352;2023-11-22T09:10:03;4.20;99.90
19088;DHT22;9676;50.916;13.352;2023-11-22T09:12:58;4.20;99.90
19088;DHT22;9676;50.916;13.352;2023-11-22T09:15:49;4.10;99.90
19088;DHT22;9676;50.916;13.352;2023-11-22T09:18:39;4.00;99.90
19088;DHT22;9676;50.916;13.352;2023-11-22T09:21:29;4.00;99.90
19088;DHT22;9676;50.916;13.352;2023-11-22T09:24:19;4.00;99.90
19088;DHT22;9676;50.916;13.352;2023-11-22T09:27:08;4.00;99.90
19088;DHT22;9676;50.916;13.352;2023-11-22T09:29:59;4.10;99.90
19088;DHT22;9676;50.916;13.352;2023-11-22T09:32:50;4.10;99.90
19088;DHT22;9676;50.916;13.352;2023-11-22T09:35:41;4.20;99.90
19088;DHT22;9676;50.916;13.352;2023-11-22T09:38:32;4.20;99.90
19088;DHT22;9676;50.916;13.352;2023-11-22T09:41:22;4.20;99.90
19088;DHT22;9676;50.916;13.352;2023-11-22T09:44:13;4.20;99.90
19088;DHT22;9676;50.916;13.352;2023-11-22T09:47:04;4.20;99.90
19088;DHT22;9676;50.916;13.352;2023-11-22T09:49:57;4.20;99.90
19088;DHT22;9676;50.916;13.352;2023-11-22T09:52:55;4.20;99.90
19088;DHT22;9676;50.916;13.352;2023-11-22T09:55:49;4.30;99.90
19088;DHT22;9676;50.916;13.352;2023-11-22T09:58:41;4.30;99.90
19088;DHT22;9676;50.916;13.352;2023-11-22T10:01:32;4.40;99.90
19088;DHT22;9676;50.916;13.352;2023-11-22T10:04:25;4.40;99.90
19088;DHT22;9676;50.916;13.352;2023-11-22T10:07:18;4.40;99.90
19088;DHT22;9676;50.916;13.352;2023-11-22T10:10:08;4.40;99.90
19088;DHT22;9676;50.916;13.352;2023-11-22T10:12:59;4.50;99.90
19088;DHT22;9676;50.916;13.352;2023-11-22T10:15:49;4.50;99.90
19088;DHT22;9676;50.916;13.352;2023-11-22T10:18:41;4.60;99.90
19088;DHT22;9676;50.916;13.352;2023-11-22T10:21:32;4.60;99.90
19088;DHT22;9676;50.916;13.352;2023-11-22T10:24:23;4.60;99.90
19088;DHT22;9676;50.916;13.352;2023-11-22T10:27:13;4.70;99.90
19088;DHT22;9676;50.916;13.352;2023-11-22T10:30:05;4.80;99.90
19088;DHT22;9676;50.916;13.352;2023-11-22T10:32:57;4.90;99.90
19088;DHT22;9676;50.916;13.352;2023-11-22T10:35:49;5.00;99.90
19088;DHT22;9676;50.916;13.352;2023-11-22T10:38:41;5.00;99.90
19088;DHT22;9676;50.916;13.352;2023-11-22T10:41:33;5.10;99.90
19088;DHT22;9676;50.916;13.352;2023-11-22T10:44:24;5.10;99.90
19088;DHT22;9676;50.916;13.352;2023-11-22T10:47:15;5.20;99.90
19088;DHT22;9676;50.916;13.352;2023-11-22T10:50:06;5.20;99.90
19088;DHT22;9676;50.916;13.352;2023-11-22T10:52:58;5.20;99.90
19088;DHT22;9676;50.916;13.352;2023-11-22T10:55:56;5.30;99.90
19088;DHT22;9676;50.916;13.352;2023-11-22T10:58:56;5.30;99.90
19088;DHT22;9676;50.916;13.352;2023-11-22T11:01:48;5.40;99.90
19088;DHT22;9676;50.916;13.352;2023-11-22T11:04:45;5.40;99.90
19088;DHT22;9676;50.916;13.352;2023-11-22T11:07:40;5.50;99.90
19088;DHT22;9676;50.916;13.352;2023-11-22T11:10:34;5.50;99.90
19088;DHT22;9676;50.916;13.352;2023-11-22T11:13:24;5.50;99.90
19088;DHT22;9676;50.916;13.352;2023-11-22T11:16:15;5.60;99.90
19088;DHT22;9676;50.916;13.352;2023-11-22T11:19:06;5.60;99.90
19088;DHT22;9676;50.916;13.352;2023-11-22T11:21:56;5.60;99.90
19088;DHT22;9676;50.916;13.352;2023-11-22T11:24:47;5.60;99.90
19088;DHT22;9676;50.916;13.352;2023-11-22T11:27:37;5.60;99.90
19088;DHT22;9676;50.916;13.352;2023-11-22T11:30:44;5.60;99.90
19088;DHT22;9676;50.916;13.352;2023-11-22T11:33:54;5.60;99.90
19088;DHT22;9676;50.916;13.352;2023-11-22T11:36:52;5.60;99.90
19088;DHT22;9676;50.916;13.352;2023-11-22T11:39:43;5.60;99.90
19088;DHT22;9676;50.916;13.352;2023-11-22T11:42:32;5.60;99.90
19088;DHT22;9676;50.916;13.352;2023-11-22T11:45:22;5.60;99.90
19088;DHT22;9676;50.916;13.352;2023-11-22T11:48:13;5.60;99.90
19088;DHT22;9676;50.916;13.352;2023-11-22T11:51:08;5.70;99.90
19088;DHT22;9676;50.916;13.352;2023-11-22T11:53:59;5.70;99.90
19088;DHT22;9676;50.916;13.352;2023-11-22T11:56:49;5.70;99.90
19088;DHT22;9676;50.916;13.352;2023-11-22T11:59:43;5.80;99.90
19088;DHT22;9676;50.916;13.352;2023-11-22T12:02:34;5.70;99.90
19088;DHT22;9676;50.916;13.352;2023-11-22T12:05:24;5.70;99.90
19088;DHT22;9676;50.916;13.352;2023-11-22T12:08:17;5.70;99.90
19088;DHT22;9676;50.916;13.352;2023-11-22T12:11:08;5.60;99.90
19088;DHT22;9676;50.916;13.352;2023-11-22T12:13:58;5.50;99.90
19088;DHT22;9676;50.916;13.352;2023-11-22T12:16:50;5.50;99.90
19088;DHT22;9676;50.916;13.352;2023-11-22T12:19:41;5.40;99.90
19088;DHT22;9676;50.916;13.352;2023-11-22T12:22:30;5.30;99.90
19088;DHT22;9676;50.916;13.352;2023-11-22T12:25:26;5.20;99.90
19088;DHT22;9676;50.916;13.352;2023-11-22T12:28:16;5.20;99.90
19088;DHT22;9676;50.916;13.352;2023-11-22T12:31:08;5.20;99.90
19088;DHT22;9676;50.916;13.352;2023-11-22T12:33:59;5.20;99.90
19088;DHT22;9676;50.916;13.352;2023-11-22T12:36:50;5.20;99.90
19088;DHT22;9676;50.916;13.352;2023-11-22T12:39:40;5.20;99.90
19088;DHT22;9676;50.916;13.352;2023-11-22T12:42:31;5.20;99.90
19088;DHT22;9676;50.916;13.352;2023-11-22T12:45:22;5.30;99.90
19088;DHT22;9676;50.916;13.352;2023-11-22T12:48:22;5.30;99.90
19088;DHT22;9676;50.916;13.352;2023-11-22T12:51:15;5.30;99.90
19088;DHT22;9676;50.916;13.352;2023-11-22T12:54:05;5.40;99.90
19088;DHT22;9676;50.916;13.352;2023-11-22T12:56:55;5.40;99.90
19088;DHT22;9676;50.916;13.352;2023-11-22T12:59:49;5.40;99.90
19088;DHT22;9676;50.916;13.352;2023-11-22T13:02:39;5.40;99.90
19088;DHT22;9676;50.916;13.352;2023-11-22T13:05:47;5.40;99.90
19088;DHT22;9676;50.916;13.352;2023-11-22T13:08:39;5.40;99.90
19088;DHT22;9676;50.916;13.352;2023-11-22T13:11:29;5.40;99.90
19088;DHT22;9676;50.916;13.352;2023-11-22T13:14:20;5.30;99.90
19088;DHT22;9676;50.916;13.352;2023-11-22T13:17:12;5.30;99.90
19088;DHT22;9676;50.916;13.352;2023-11-22T13:20:03;5.20;99.90
19088;DHT22;9676;50.916;13.352;2023-11-22T13:22:54;5.20;99.90
19088;DHT22;9676;50.916;13.352;2023-11-22T13:25:44;5.10;99.90
19088;DHT22;9676;50.916;13.352;2023-11-22T13:28:34;5.10;99.90
19088;DHT22;9676;50.916;13.352;2023-11-22T13:31:23;5.10;99.90
19088;DHT22;9676;50.916;13.352;2023-11-22T13:34:15;5.10;99.90
19088;DHT22;9676;50.916;13.352;2023-11-22T13:37:04;5.10;99.90
19088;DHT22;9676;50.916;13.352;2023-11-22T13:39:54;5.10;99.90
19088;DHT22;9676;50.916;13.352;2023-11-22T13:42:44;5.20;99.90
19088;DHT22;9676;50.916;13.352;2023-11-22T13:45:35;5.20;99.90
19088;DHT22;9676;50.916;13.352;2023-11-22T13:48:26;5.20;99.90
19088;DHT22;9676;50.916;13.352;2023-11-22T13:51:17;5.20;99.90
19088;DHT22;9676;50.916;13.352;2023-11-22T13:54:07;5.20;99.90
19088;DHT22;9676;50.916;13.352;2023-11-22T13:56:57;5.30;99.90
19088;DHT22;9676;50.916;13.352;2023-11-22T13:59:47;5.30;99.90
19088;DHT22;9676;50.916;13.352;2023-11-22T14:02:37;5.30;99.90
19088;DHT22;9676;50.916;13.352;2023-11-22T14:05:27;5.30;99.90
19088;DHT22;9676;50.916;13.352;2023-11-22T14:08:18;5.40;99.90
19088;DHT22;9676;50.916;13.352;2023-11-22T14:11:07;5.40;99.90
19088;DHT22;9676;50.916;13.352;2023-11-22T14:13:57;5.40;99.90
19088;DHT22;9676;50.916;13.352;2023-11-22T14:16:48;5.40;99.90
19088;DHT22;9676;50.916;13.352;2023-11-22T14:19:38;5.40;99.90
19088;DHT22;9676;50.916;13.352;2023-11-22T14:22:40;5.40;99.90
19088;DHT22;9676;50.916;13.352;2023-11-22T14:25:31;5.40;99.90
19088;DHT22;9676;50.916;13.352;2023-11-22T14:28:22;5.40;99.90
19088;DHT22;9676;50.916;13.352;2023-11-22T14:31:12;5.40;99.90
19088;DHT22;9676;50.916;13.352;2023-11-22T14:34:02;5.40;99.90
19088;DHT22;9676;50.916;13.352;2023-11-22T14:36:53;5.40;99.90
19088;DHT22;9676;50.916;13.352;2023-11-22T14:39:43;5.40;99.90
19088;DHT22;9676;50.916;13.352;2023-11-22T14:42:34;5.40;99.90
19088;DHT22;9676;50.916;13.352;2023-11-22T14:45:24;5.40;99.90
19088;DHT22;9676;50.916;13.352;2023-11-22T14:48:15;5.40;99.90
19088;DHT22;9676;50.916;13.352;2023-11-22T14:51:06;5.40;99.90
19088;DHT22;9676;50.916;13.352;2023-11-22T14:53:57;5.30;99.90
19088;DHT22;9676;50.916;13.352;2023-11-22T14:56:46;5.30;99.90
19088;DHT22;9676;50.916;13.352;2023-11-22T14:59:38;5.30;99.90
19088;DHT22;9676;50.916;13.352;2023-11-22T15:02:29;5.30;99.90
19088;DHT22;9676;50.916;13.352;2023-11-22T15:05:19;5.30;99.90
19088;DHT22;9676;50.916;13.352;2023-11-22T15:08:10;5.20;99.90
19088;DHT22;9676;50.916;13.352;2023-11-22T15:11:00;5.20;99.90
19088;DHT22;9676;50.916;13.352;2023-11-22T15:13:49;5.20;99.90
19088;DHT22;9676;50.916;13.352;2023-11-22T15:16:41;5.10;99.90
19088;DHT22;9676;50.916;13.352;2023-11-22T15:19:30;5.10;99.90
19088;DHT22;9676;50.916;13.352;2023-11-22T15:22:20;5.10;99.90
19088;DHT22;9676;50.916;13.352;2023-11-22T15:25:10;5.10;99.90
19088;DHT22;9676;50.916;13.352;2023-11-22T15:28:01;5.10;99.90
19088;DHT22;9676;50.916;13.352;2023-11-22T15:30:52;5.10;99.90
19088;DHT22;9676;50.916;13.352;2023-11-22T15:33:48;5.10;99.90
19088;DHT22;9676;50.916;13.352;2023-11-22T15:36:38;5.10;99.90
19088;DHT22;9676;50.916;13.352;2023-11-22T15:39:28;5.10;99.90
19088;DHT22;9676;50.916;13.352;2023-11-22T15:42:18;5.10;99.90
19088;DHT22;9676;50.916;13.352;2023-11-22T15:45:09;5.10;99.90
19088;DHT22;9676;50.916;13.352;2023-11-22T15:47:59;5.10;99.90
19088;DHT22;9676;50.916;13.352;2023-11-22T15:50:50;5.10;99.90
19088;DHT22;9676;50.916;13.352;2023-11-22T15:53:40;5.10;99.90
19088;DHT22;9676;50.916;13.352;2023-11-22T15:56:30;5.10;99.90
19088;DHT22;9676;50.916;13.352;2023-11-22T15:59:20;5.10;99.90
19088;DHT22;9676;50.916;13.352;2023-11-22T16:02:09;5.10;99.90
19088;DHT22;9676;50.916;13.352;2023-11-22T16:04:59;5.00;99.90
19088;DHT22;9676;50.916;13.352;2023-11-22T16:07:50;5.00;99.90
19088;DHT22;9676;50.916;13.352;2023-11-22T16:10:40;5.00;99.90
19088;DHT22;9676;50.916;13.352;2023-11-22T16:13:32;5.00;99.90
19088;DHT22;9676;50.916;13.352;2023-11-22T16:16:22;4.90;99.90
19088;DHT22;9676;50.916;13.352;2023-11-22T16:19:11;4.90;99.90
19088;DHT22;9676;50.916;13.352;2023-11-22T16:22:01;4.90;99.90
19088;DHT22;9676;50.916;13.352;2023-11-22T16:24:52;4.90;99.90
19088;DHT22;9676;50.916;13.352;2023-11-22T16:27:42;4.80;99.90
19088;DHT22;9676;50.916;13.352;2023-11-22T16:30:31;4.80;99.90
19088;DHT22;9676;50.916;13.352;2023-11-22T16:33:21;4.80;99.90
19088;DHT22;9676;50.916;13.352;2023-11-22T16:36:40;4.80;99.90
19088;DHT22;9676;50.916;13.352;2023-11-22T16:39:29;4.90;99.90
19088;DHT22;9676;50.916;13.352;2023-11-22T16:42:21;4.90;99.90
19088;DHT22;9676;50.916;13.352;2023-11-22T16:45:11;4.90;99.90
19088;DHT22;9676;50.916;13.352;2023-11-22T16:48:00;4.90;99.90
19088;DHT22;9676;50.916;13.352;2023-11-22T16:50:50;4.90;99.90
19088;DHT22;9676;50.916;13.352;2023-11-22T16:53:40;5.00;99.90
19088;DHT22;9676;50.916;13.352;2023-11-22T16:56:30;5.00;99.90
19088;DHT22;9676;50.916;13.352;2023-11-22T16:59:21;5.00;99.90
19088;DHT22;9676;50.916;13.352;2023-11-22T17:02:11;5.00;99.90
19088;DHT22;9676;50.916;13.352;2023-11-22T17:05:01;5.00;99.90
19088;DHT22;9676;50.916;13.352;2023-11-22T17:07:51;4.90;99.90
19088;DHT22;9676;50.916;13.352;2023-11-22T17:10:41;4.90;99.90
19088;DHT22;9676;50.916;13.352;2023-11-22T17:13:34;4.90;99.90
19088;DHT22;9676;50.916;13.352;2023-11-22T17:16:26;4.90;99.90
19088;DHT22;9676;50.916;13.352;2023-11-22T17:19:19;5.00;99.90
19088;DHT22;9676;50.916;13.352;2023-11-22T17:22:08;5.00;99.90
19088;DHT22;9676;50.916;13.352;2023-11-22T17:24:59;5.00;99.90
19088;DHT22;9676;50.916;13.352;2023-11-22T17:27:50;5.00;99.90
19088;DHT22;9676;50.916;13.352;2023-11-22T17:30:42;5.00;99.90
19088;DHT22;9676;50.916;13.352;2023-11-22T17:33:33;5.10;99.90
19088;DHT22;9676;50.916;13.352;2023-11-22T17:36:24;5.00;99.90
19088;DHT22;9676;50.916;13.352;2023-11-22T17:39:13;5.10;99.90